sensor_id;sensor_type;location;lat;lon;timestamp;temperature;humidity
8928;DHT22;4499;48.304;11.902;2023-06-14T00:00:04;11.80;91.40
8928;DHT22;4499;48.304;11.902;2023-06-14T00:02:34;11.70;91.80
8928;DHT22;4499;48.304;11.902;2023-06-14T00:05:03;11.70;91.80
8928;DHT22;4499;48.304;11.902;2023-06-14T00:07:37;11.70;91.10
8928;DHT22;4499;48.304;11.902;2023-06-14T00:10:06;11.80;90.90
8928;DHT22;4499;48.304;11.902;2023-06-14T00:12:35;11.80;91.00
8928;DHT22;4499;48.304;11.902;2023-06-14T00:15:04;11.70;91.50
8928;DHT22;4499;48.304;11.902;2023-06-14T00:17:32;11.70;91.90
8928;DHT22;4499;48.304;11.902;2023-06-14T00:20:02;11.70;91.80
8928;DHT22;4499;48.304;11.902;2023-06-14T00:22:31;11.60;92.70
8928;DHT22;4499;48.304;11.902;2023-06-14T00:25:01;11.60;92.90
8928;DHT22;4499;48.304;11.902;2023-06-14T00:27:49;11.50;93.80
8928;DHT22;4499;48.304;11.902;2023-06-14T00:30:17;11.50;94.50
8928;DHT22;4499;48.304;11.902;2023-06-14T00:32:46;11.40;94.70
8928;DHT22;4499;48.304;11.902;2023-06-14T00:35:14;11.40;95.20
8928;DHT22;4499;48.304;11.902;2023-06-14T00:37:42;11.40;95.00
8928;DHT22;4499;48.304;11.902;2023-06-14T00:40:12;11.40;95.20
8928;DHT22;4499;48.304;11.902;2023-06-14T00:42:40;11.30;95.90
8928;DHT22;4499;48.304;11.902;2023-06-14T00:45:10;11.20;96.90
8928;DHT22;4499;48.304;11.902;2023-06-14T00:47:38;11.20;97.30
8928;DHT22;4499;48.304;11.902;2023-06-14T00:50:09;11.20;97.50
8928;DHT22;4499;48.304;11.902;2023-06-14T00:52:38;11.20;97.30
8928;DHT22;4499;48.304;11.902;2023-06-14T00:55:07;11.20;97.50
8928;DHT22;4499;48.304;11.902;2023-06-14T00:57:37;11.10;98.20
8928;DHT22;4499;48.304;11.902;2023-06-14T01:00:07;11.10;98.40
8928;DHT22;4499;48.304;11.902;2023-06-14T01:02:37;11.00;99.00
8928;DHT22;4499;48.304;11.902;2023-06-14T01:05:06;11.00;99.30
8928;DHT22;4499;48.304;11.902;2023-06-14T01:07:43;10.90;99.80
8928;DHT22;4499;48.304;11.902;2023-06-14T01:10:27;10.90;99.90
8928;DHT22;4499;48.304;11.902;2023-06-14T01:13:03;10.90;99.90
8928;DHT22;4499;48.304;11.902;2023-06-14T01:15:34;10.90;99.90
8928;DHT22;4499;48.304;11.902;2023-06-14T01:18:04;10.80;99.90
8928;DHT22;4499;48.304;11.902;2023-06-14T01:20:33;10.80;99.90
8928;DHT22;4499;48.304;11.902;2023-06-14T01:23:05;10.80;99.90
8928;DHT22;4499;48.304;11.902;2023-06-14T01:25:33;10.70;99.90
8928;DHT22;4499;48.304;11.902;2023-06-14T01:28:05;10.70;99.90
8928;DHT22;4499;48.304;11.902;2023-06-14T01:30:37;10.60;99.90
8928;DHT22;4499;48.304;11.902;2023-06-14T01:33:09;10.50;99.90
8928;DHT22;4499;48.304;11.902;2023-06-14T01:35:37;10.50;99.90
8928;DHT22;4499;48.304;11.902;2023-06-14T01:38:07;10.50;99.90
8928;DHT22;4499;48.304;11.902;2023-06-14T01:40:36;10.40;99.90
8928;DHT22;4499;48.304;11.902;2023-06-14T01:43:05;10.40;99.90
8928;DHT22;4499;48.304;11.902;2023-06-14T01:45:34;10.40;99.90
8928;DHT22;4499;48.304;11.902;2023-06-14T01:48:03;10.30;99.90
8928;DHT22;4499;48.304;11.902;2023-06-14T01:50:32;10.30;99.90
8928;DHT22;4499;48.304;11.902;2023-06-14T01:53:00;10.30;99.90
8928;DHT22;4499;48.304;11.902;2023-06-14T01:55:30;10.20;99.90
8928;DHT22;4499;48.304;11.902;2023-06-14T01:58:04;10.30;99.90
8928;DHT22;4499;48.304;11.902;2023-06-14T02:00:32;10.20;99.90
8928;DHT22;4499;48.304;11.902;2023-06-14T02:03:00;10.20;99.90
8928;DHT22;4499;48.304;11.902;2023-06-14T02:05:30;10.30;99.90
8928;DHT22;4499;48.304;11.902;2023-06-14T02:07:59;10.20;99.90
8928;DHT22;4499;48.304;11.902;2023-06-14T02:10:27;10.20;99.90
8928;DHT22;4499;48.304;11.902;2023-06-14T02:12:56;10.20;99.90
8928;DHT22;4499;48.304;11.902;2023-06-14T02:15:24;10.10;99.90
8928;DHT22;4499;48.304;11.902;2023-06-14T02:18:01;10.10;99.90
8928;DHT22;4499;48.304;11.902;2023-06-14T02:20:30;10.00;99.90
8928;DHT22;4499;48.304;11.902;2023-06-14T02:22:59;10.00;99.90
8928;DHT22;4499;48.304;11.902;2023-06-14T02:25:28;10.00;99.90
8928;DHT22;4499;48.304;11.902;2023-06-14T02:27:58;9.90;99.90
8928;DHT22;4499;48.304;11.902;2023-06-14T02:30:26;9.90;99.90
8928;DHT22;4499;48.304;11.902;2023-06-14T02:32:54;9.90;99.90
8928;DHT22;4499;48.304;11.902;2023-06-14T02:35:22;9.90;99.90
8928;DHT22;4499;48.304;11.902;2023-06-14T02:37:53;9.90;99.90
8928;DHT22;4499;48.304;11.902;2023-06-14T02:40:22;9.80;99.90
8928;DHT22;4499;48.304;11.902;2023-06-14T02:42:50;9.80;99.90
8928;DHT22;4499;48.304;11.902;2023-06-14T02:45:19;9.80;99.90
8928;DHT22;4499;48.304;11.902;2023-06-14T02:47:48;9.80;99.90
8928;DHT22;4499;48.304;11.902;2023-06-14T02:50:17;9.70;99.90
8928;DHT22;4499;48.304;11.902;2023-06-14T02:52:45;9.70;99.90
8928;DHT22;4499;48.304;11.902;2023-06-14T02:55:14;9.70;99.90
8928;DHT22;4499;48.304;11.902;2023-06-14T02:57:42;9.60;99.90
8928;DHT22;4499;48.304;11.902;2023-06-14T03:00:11;9.60;99.90
8928;DHT22;4499;48.304;11.902;2023-06-14T03:02:42;9.60;99.90
8928;DHT22;4499;48.304;11.902;2023-06-14T03:05:11;9.60;99.90
8928;DHT22;4499;48.304;11.902;2023-06-14T03:07:39;9.60;99.90
8928;DHT22;4499;48.304;11.902;2023-06-14T03:10:12;9.60;99.90
8928;DHT22;4499;48.304;11.902;2023-06-14T03:12:41;9.50;99.90
8928;DHT22;4499;48.304;11.902;2023-06-14T03:15:10;9.50;99.90
8928;DHT22;4499;48.304;11.902;2023-06-14T03:17:40;9.40;99.90
8928;DHT22;4499;48.304;11.902;2023-06-14T03:20:14;9.40;99.90
8928;DHT22;4499;48.304;11.902;2023-06-14T03:22:43;9.40;99.90
8928;DHT22;4499;48.304;11.902;2023-06-14T03:25:13;9.40;99.90
8928;DHT22;4499;48.304;11.902;2023-06-14T03:27:41;9.40;99.90
8928;DHT22;4499;48.304;11.902;2023-06-14T03:30:10;9.40;99.90
8928;DHT22;4499;48.304;11.902;2023-06-14T03:32:39;9.50;99.90
8928;DHT22;4499;48.304;11.902;2023-06-14T03:35:07;9.50;99.90
8928;DHT22;4499;48.304;11.902;2023-06-14T03:37:38;9.50;99.90
8928;DHT22;4499;48.304;11.902;2023-06-14T03:40:06;9.50;99.90
8928;DHT22;4499;48.304;11.902;2023-06-14T03:42:35;9.50;99.90
8928;DHT22;4499;48.304;11.902;2023-06-14T03:45:04;9.60;99.90
8928;DHT22;4499;48.304;11.902;2023-06-14T03:47:33;9.60;99.90
8928;DHT22;4499;48.304;11.902;2023-06-14T03:50:02;9.60;99.90
8928;DHT22;4499;48.304;11.902;2023-06-14T03:52:30;9.60;99.90
8928;DHT22;4499;48.304;11.902;2023-06-14T03:55:00;9.60;99.90
8928;DHT22;4499;48.304;11.902;2023-06-14T03:57:32;9.60;99.90
8928;DHT22;4499;48.304;11.902;2023-06-14T04:00:00;9.60;99.90
8928;DHT22;4499;48.304;11.902;2023-06-14T04:02:31;9.70;99.90
8928;DHT22;4499;48.304;11.902;2023-06-14T04:04:59;9.70;99.90
8928;DHT22;4499;48.304;11.902;2023-06-14T04:07:30;9.80;99.90
8928;DHT22;4499;48.304;11.902;2023-06-14T04:09:58;9.80;99.90
8928;DHT22;4499;48.304;11.902;2023-06-14T04:12:28;9.80;99.90
8928;DHT22;4499;48.304;11.902;2023-06-14T04:14:56;9.90;99.90
8928;DHT22;4499;48.304;11.902;2023-06-14T04:17:37;9.90;99.90
8928;DHT22;4499;48.304;11.902;2023-06-14T04:20:07;10.00;99.90
8928;DHT22;4499;48.304;11.902;2023-06-14T04:22:37;10.00;99.90
8928;DHT22;4499;48.304;11.902;2023-06-14T04:25:05;10.10;99.90
8928;DHT22;4499;48.304;11.902;2023-06-14T04:27:35;10.20;99.90
8928;DHT22;4499;48.304;11.902;2023-06-14T04:30:04;10.20;99.90
8928;DHT22;4499;48.304;11.902;2023-06-14T04:32:35;10.30;99.90
8928;DHT22;4499;48.304;11.902;2023-06-14T04:35:07;10.40;99.90
8928;DHT22;4499;48.304;11.902;2023-06-14T04:37:35;10.50;99.90
8928;DHT22;4499;48.304;11.902;2023-06-14T04:40:08;10.50;99.90
8928;DHT22;4499;48.304;11.902;2023-06-14T04:42:40;10.60;99.90
8928;DHT22;4499;48.304;11.902;2023-06-14T04:45:11;10.60;99.90
8928;DHT22;4499;48.304;11.902;2023-06-14T04:47:40;10.70;99.90
8928;DHT22;4499;48.304;11.902;2023-06-14T04:50:09;10.80;99.90
8928;DHT22;4499;48.304;11.902;2023-06-14T04:52:39;10.80;99.90
8928;DHT22;4499;48.304;11.902;2023-06-14T04:55:09;11.00;99.90
8928;DHT22;4499;48.304;11.902;2023-06-14T04:57:37;11.10;99.90
8928;DHT22;4499;48.304;11.902;2023-06-14T05:00:10;11.20;99.90
8928;DHT22;4499;48.304;11.902;2023-06-14T05:02:39;11.30;99.90
8928;DHT22;4499;48.304;11.902;2023-06-14T05:05:08;11.50;99.90
8928;DHT22;4499;48.304;11.902;2023-06-14T05:07:36;11.60;99.90
8928;DHT22;4499;48.304;11.902;2023-06-14T05:10:08;11.80;99.90
8928;DHT22;4499;48.304;11.902;2023-06-14T05:12:37;12.00;99.90
8928;DHT22;4499;48.304;11.902;2023-06-14T05:15:06;12.00;99.90
8928;DHT22;4499;48.304;11.902;2023-06-14T05:17:37;12.10;99.90
8928;DHT22;4499;48.304;11.902;2023-06-14T05:20:08;12.20;99.90
8928;DHT22;4499;48.304;11.902;2023-06-14T05:22:38;12.30;99.90
8928;DHT22;4499;48.304;11.902;2023-06-14T05:25:06;12.40;99.90
8928;DHT22;4499;48.304;11.902;2023-06-14T05:27:34;12.80;99.90
8928;DHT22;4499;48.304;11.902;2023-06-14T05:30:05;12.90;99.70
8928;DHT22;4499;48.304;11.902;2023-06-14T05:32:33;13.00;99.90
8928;DHT22;4499;48.304;11.902;2023-06-14T05:35:04;13.10;98.20
8928;DHT22;4499;48.304;11.902;2023-06-14T05:37:32;13.00;98.60
8928;DHT22;4499;48.304;11.902;2023-06-14T05:40:01;13.10;97.80
8928;DHT22;4499;48.304;11.902;2023-06-14T05:42:31;13.10;98.10
8928;DHT22;4499;48.304;11.902;2023-06-14T05:44:59;13.20;97.40
8928;DHT22;4499;48.304;11.902;2023-06-14T05:47:27;13.30;97.70
8928;DHT22;4499;48.304;11.902;2023-06-14T05:49:55;13.70;97.50
8928;DHT22;4499;48.304;11.902;2023-06-14T05:52:25;14.30;96.20
8928;DHT22;4499;48.304;11.902;2023-06-14T05:54:53;15.20;93.10
8928;DHT22;4499;48.304;11.902;2023-06-14T05:57:21;16.40;91.20
8928;DHT22;4499;48.304;11.902;2023-06-14T05:59:49;17.20;84.60
8928;DHT22;4499;48.304;11.902;2023-06-14T06:02:18;18.80;77.30
8928;DHT22;4499;48.304;11.902;2023-06-14T06:04:46;20.20;67.30
8928;DHT22;4499;48.304;11.902;2023-06-14T06:07:14;20.90;58.40
8928;DHT22;4499;48.304;11.902;2023-06-14T06:09:44;21.60;53.70
8928;DHT22;4499;48.304;11.902;2023-06-14T06:12:12;21.70;52.60
8928;DHT22;4499;48.304;11.902;2023-06-14T06:14:41;22.60;50.20
8928;DHT22;4499;48.304;11.902;2023-06-14T06:17:09;23.00;45.90
8928;DHT22;4499;48.304;11.902;2023-06-14T06:19:38;23.00;45.20
8928;DHT22;4499;48.304;11.902;2023-06-14T06:22:06;22.90;43.90
8928;DHT22;4499;48.304;11.902;2023-06-14T06:24:34;23.40;42.60
8928;DHT22;4499;48.304;11.902;2023-06-14T06:27:05;23.60;41.20
8928;DHT22;4499;48.304;11.902;2023-06-14T06:29:34;23.40;40.50
8928;DHT22;4499;48.304;11.902;2023-06-14T06:32:03;23.50;40.70
8928;DHT22;4499;48.304;11.902;2023-06-14T06:34:31;23.50;40.50
8928;DHT22;4499;48.304;11.902;2023-06-14T06:36:59;22.70;40.00
8928;DHT22;4499;48.304;11.902;2023-06-14T06:39:28;22.60;41.00
8928;DHT22;4499;48.304;11.902;2023-06-14T06:41:56;23.50;39.90
8928;DHT22;4499;48.304;11.902;2023-06-14T06:44:26;23.40;38.60
8928;DHT22;4499;48.304;11.902;2023-06-14T06:46:54;23.90;37.90
8928;DHT22;4499;48.304;11.902;2023-06-14T06:49:23;24.40;38.60
8928;DHT22;4499;48.304;11.902;2023-06-14T06:52:01;25.20;37.30
8928;DHT22;4499;48.304;11.902;2023-06-14T06:54:29;25.90;34.70
8928;DHT22;4499;48.304;11.902;2023-06-14T06:56:58;26.50;33.20
8928;DHT22;4499;48.304;11.902;2023-06-14T06:59:28;26.80;32.00
8928;DHT22;4499;48.304;11.902;2023-06-14T07:01:57;26.40;31.10
8928;DHT22;4499;48.304;11.902;2023-06-14T07:04:25;26.30;32.70
8928;DHT22;4499;48.304;11.902;2023-06-14T07:06:54;26.10;32.80
8928;DHT22;4499;48.304;11.902;2023-06-14T07:09:22;27.10;31.90
8928;DHT22;4499;48.304;11.902;2023-06-14T07:11:51;27.20;29.90
8928;DHT22;4499;48.304;11.902;2023-06-14T07:14:20;27.30;30.40
8928;DHT22;4499;48.304;11.902;2023-06-14T07:16:51;26.00;30.80
8928;DHT22;4499;48.304;11.902;2023-06-14T07:19:19;26.30;31.90
8928;DHT22;4499;48.304;11.902;2023-06-14T07:21:47;25.50;32.60
8928;DHT22;4499;48.304;11.902;2023-06-14T07:24:16;25.80;33.00
8928;DHT22;4499;48.304;11.902;2023-06-14T07:26:44;24.70;33.00
8928;DHT22;4499;48.304;11.902;2023-06-14T07:29:12;25.80;35.30
8928;DHT22;4499;48.304;11.902;2023-06-14T07:31:41;26.60;32.10
8928;DHT22;4499;48.304;11.902;2023-06-14T07:34:11;27.40;31.90
8928;DHT22;4499;48.304;11.902;2023-06-14T07:36:39;28.00;29.30
8928;DHT22;4499;48.304;11.902;2023-06-14T07:39:10;27.60;28.00
8928;DHT22;4499;48.304;11.902;2023-06-14T07:41:38;26.70;31.50
8928;DHT22;4499;48.304;11.902;2023-06-14T07:44:06;27.50;29.60
8928;DHT22;4499;48.304;11.902;2023-06-14T07:46:34;27.20;31.80
8928;DHT22;4499;48.304;11.902;2023-06-14T07:49:03;28.70;29.30
8928;DHT22;4499;48.304;11.902;2023-06-14T07:51:33;29.60;27.60
8928;DHT22;4499;48.304;11.902;2023-06-14T07:54:03;28.80;26.20
8928;DHT22;4499;48.304;11.902;2023-06-14T07:56:34;28.50;28.20
8928;DHT22;4499;48.304;11.902;2023-06-14T07:59:02;28.80;28.30
8928;DHT22;4499;48.304;11.902;2023-06-14T08:01:30;28.30;27.80
8928;DHT22;4499;48.304;11.902;2023-06-14T08:04:00;28.20;28.70
8928;DHT22;4499;48.304;11.902;2023-06-14T08:06:28;28.20;27.80
8928;DHT22;4499;48.304;11.902;2023-06-14T08:08:58;28.80;27.70
8928;DHT22;4499;48.304;11.902;2023-06-14T08:11:28;29.40;27.30
8928;DHT22;4499;48.304;11.902;2023-06-14T08:13:56;29.90;26.20
8928;DHT22;4499;48.304;11.902;2023-06-14T08:16:24;29.70;25.50
8928;DHT22;4499;48.304;11.902;2023-06-14T08:18:52;29.70;25.00
8928;DHT22;4499;48.304;11.902;2023-06-14T08:21:20;29.70;24.70
8928;DHT22;4499;48.304;11.902;2023-06-14T08:23:49;28.90;25.10
8928;DHT22;4499;48.304;11.902;2023-06-14T08:26:21;28.90;25.60
8928;DHT22;4499;48.304;11.902;2023-06-14T08:28:50;28.70;26.40
8928;DHT22;4499;48.304;11.902;2023-06-14T08:31:18;29.30;26.40
8928;DHT22;4499;48.304;11.902;2023-06-14T08:33:46;29.00;26.00
8928;DHT22;4499;48.304;11.902;2023-06-14T08:36:15;29.60;25.80
8928;DHT22;4499;48.304;11.902;2023-06-14T08:38:43;29.80;24.70
8928;DHT22;4499;48.304;11.902;2023-06-14T08:41:12;29.20;26.50
8928;DHT22;4499;48.304;11.902;2023-06-14T08:43:49;27.60;28.10
8928;DHT22;4499;48.304;11.902;2023-06-14T08:46:18;27.60;28.00
8928;DHT22;4499;48.304;11.902;2023-06-14T08:48:49;27.70;27.80
8928;DHT22;4499;48.304;11.902;2023-06-14T08:51:19;27.30;27.30
8928;DHT22;4499;48.304;11.902;2023-06-14T08:53:53;26.20;28.60
8928;DHT22;4499;48.304;11.902;2023-06-14T08:56:25;25.50;29.10
8928;DHT22;4499;48.304;11.902;2023-06-14T08:58:57;25.20;29.50
8928;DHT22;4499;48.304;11.902;2023-06-14T09:01:28;24.40;31.10
8928;DHT22;4499;48.304;11.902;2023-06-14T09:03:58;25.20;30.60
8928;DHT22;4499;48.304;11.902;2023-06-14T09:06:26;26.30;29.40
8928;DHT22;4499;48.304;11.902;2023-06-14T09:08:55;27.10;25.90
8928;DHT22;4499;48.304;11.902;2023-06-14T09:11:24;28.10;25.50
8928;DHT22;4499;48.304;11.902;2023-06-14T09:13:53;29.20;26.70
8928;DHT22;4499;48.304;11.902;2023-06-14T09:16:23;28.80;24.80
8928;DHT22;4499;48.304;11.902;2023-06-14T09:18:51;28.90;24.70
8928;DHT22;4499;48.304;11.902;2023-06-14T09:21:19;29.50;25.40
8928;DHT22;4499;48.304;11.902;2023-06-14T09:23:48;29.70;22.80
8928;DHT22;4499;48.304;11.902;2023-06-14T09:26:18;29.90;21.70
8928;DHT22;4499;48.304;11.902;2023-06-14T09:28:48;29.50;22.00
8928;DHT22;4499;48.304;11.902;2023-06-14T09:31:18;29.70;22.80
8928;DHT22;4499;48.304;11.902;2023-06-14T09:33:49;29.10;23.00
8928;DHT22;4499;48.304;11.902;2023-06-14T09:36:21;28.90;24.10
8928;DHT22;4499;48.304;11.902;2023-06-14T09:38:53;29.30;24.20
8928;DHT22;4499;48.304;11.902;2023-06-14T09:41:31;29.50;23.70
8928;DHT22;4499;48.304;11.902;2023-06-14T09:44:00;29.80;24.20
8928;DHT22;4499;48.304;11.902;2023-06-14T09:46:35;30.90;24.50
8928;DHT22;4499;48.304;11.902;2023-06-14T09:49:06;31.50;21.30
8928;DHT22;4499;48.304;11.902;2023-06-14T09:51:36;32.30;20.60
8928;DHT22;4499;48.304;11.902;2023-06-14T09:54:05;31.10;20.30
8928;DHT22;4499;48.304;11.902;2023-06-14T09:56:36;31.10;22.40
8928;DHT22;4499;48.304;11.902;2023-06-14T09:59:05;31.50;21.30
8928;DHT22;4499;48.304;11.902;2023-06-14T10:01:35;31.20;20.80
8928;DHT22;4499;48.304;11.902;2023-06-14T10:04:09;31.40;22.10
8928;DHT22;4499;48.304;11.902;2023-06-14T10:06:40;31.20;20.60
8928;DHT22;4499;48.304;11.902;2023-06-14T10:09:09;30.90;22.60
8928;DHT22;4499;48.304;11.902;2023-06-14T10:11:38;32.10;20.70
8928;DHT22;4499;48.304;11.902;2023-06-14T10:14:12;32.30;19.40
8928;DHT22;4499;48.304;11.902;2023-06-14T10:16:47;31.60;19.40
8928;DHT22;4499;48.304;11.902;2023-06-14T10:19:23;32.00;21.50
8928;DHT22;4499;48.304;11.902;2023-06-14T10:21:58;32.20;20.60
8928;DHT22;4499;48.304;11.902;2023-06-14T10:24:30;31.20;20.30
8928;DHT22;4499;48.304;11.902;2023-06-14T10:27:03;30.80;21.40
8928;DHT22;4499;48.304;11.902;2023-06-14T10:29:32;30.60;19.10
8928;DHT22;4499;48.304;11.902;2023-06-14T10:32:00;30.40;21.70
8928;DHT22;4499;48.304;11.902;2023-06-14T10:34:32;30.30;21.10
8928;DHT22;4499;48.304;11.902;2023-06-14T10:37:02;30.40;20.70
8928;DHT22;4499;48.304;11.902;2023-06-14T10:39:31;31.20;18.30
8928;DHT22;4499;48.304;11.902;2023-06-14T10:42:02;31.10;19.00
8928;DHT22;4499;48.304;11.902;2023-06-14T10:44:42;30.70;21.00
8928;DHT22;4499;48.304;11.902;2023-06-14T10:47:20;30.60;20.50
8928;DHT22;4499;48.304;11.902;2023-06-14T10:49:52;30.60;20.00
8928;DHT22;4499;48.304;11.902;2023-06-14T10:52:24;30.90;21.30
8928;DHT22;4499;48.304;11.902;2023-06-14T10:55:16;29.70;20.00
8928;DHT22;4499;48.304;11.902;2023-06-14T10:57:47;30.40;20.50
8928;DHT22;4499;48.304;11.902;2023-06-14T11:00:20;29.90;20.50
8928;DHT22;4499;48.304;11.902;2023-06-14T11:03:24;30.10;21.70
8928;DHT22;4499;48.304;11.902;2023-06-14T11:05:58;30.40;20.70
8928;DHT22;4499;48.304;11.902;2023-06-14T11:11:46;28.80;21.10
8928;DHT22;4499;48.304;11.902;2023-06-14T11:14:16;27.50;22.40
8928;DHT22;4499;48.304;11.902;2023-06-14T11:16:48;26.40;24.10
8928;DHT22;4499;48.304;11.902;2023-06-14T11:19:16;25.40;23.60
8928;DHT22;4499;48.304;11.902;2023-06-14T11:21:49;25.00;25.70
8928;DHT22;4499;48.304;11.902;2023-06-14T11:24:17;25.20;25.10
8928;DHT22;4499;48.304;11.902;2023-06-14T11:26:47;25.90;24.70
8928;DHT22;4499;48.304;11.902;2023-06-14T11:29:16;26.40;22.30
8928;DHT22;4499;48.304;11.902;2023-06-14T11:31:45;26.20;22.30
8928;DHT22;4499;48.304;11.902;2023-06-14T11:34:13;26.40;22.00
8928;DHT22;4499;48.304;11.902;2023-06-14T11:36:42;26.60;22.10
8928;DHT22;4499;48.304;11.902;2023-06-14T11:39:12;26.70;22.00
8928;DHT22;4499;48.304;11.902;2023-06-14T11:41:42;26.20;22.10
8928;DHT22;4499;48.304;11.902;2023-06-14T11:44:10;26.50;23.00
8928;DHT22;4499;48.304;11.902;2023-06-14T11:46:39;26.80;22.10
8928;DHT22;4499;48.304;11.902;2023-06-14T11:49:08;26.10;23.30
8928;DHT22;4499;48.304;11.902;2023-06-14T11:51:37;26.60;24.20
8928;DHT22;4499;48.304;11.902;2023-06-14T11:54:06;25.70;23.20
8928;DHT22;4499;48.304;11.902;2023-06-14T11:56:36;25.40;26.10
8928;DHT22;4499;48.304;11.902;2023-06-14T11:59:05;25.20;26.00
8928;DHT22;4499;48.304;11.902;2023-06-14T12:01:36;24.80;27.30
8928;DHT22;4499;48.304;11.902;2023-06-14T12:04:06;24.40;26.90
8928;DHT22;4499;48.304;11.902;2023-06-14T12:06:34;24.50;27.20
8928;DHT22;4499;48.304;11.902;2023-06-14T12:09:07;25.10;26.30
8928;DHT22;4499;48.304;11.902;2023-06-14T12:11:42;25.60;24.80
8928;DHT22;4499;48.304;11.902;2023-06-14T12:14:10;25.90;25.60
8928;DHT22;4499;48.304;11.902;2023-06-14T12:16:39;26.20;25.10
8928;DHT22;4499;48.304;11.902;2023-06-14T12:19:11;26.10;25.30
8928;DHT22;4499;48.304;11.902;2023-06-14T12:21:40;24.90;23.30
8928;DHT22;4499;48.304;11.902;2023-06-14T12:24:08;24.80;25.20
8928;DHT22;4499;48.304;11.902;2023-06-14T12:26:42;24.30;24.20
8928;DHT22;4499;48.304;11.902;2023-06-14T12:29:10;23.70;26.50
8928;DHT22;4499;48.304;11.902;2023-06-14T12:31:40;23.40;25.50
8928;DHT22;4499;48.304;11.902;2023-06-14T12:34:09;23.40;28.70
8928;DHT22;4499;48.304;11.902;2023-06-14T12:36:37;23.30;28.70
8928;DHT22;4499;48.304;11.902;2023-06-14T12:39:11;23.80;28.30
8928;DHT22;4499;48.304;11.902;2023-06-14T12:41:39;24.40;26.60
8928;DHT22;4499;48.304;11.902;2023-06-14T12:44:10;24.30;27.00
8928;DHT22;4499;48.304;11.902;2023-06-14T12:46:39;24.20;27.20
8928;DHT22;4499;48.304;11.902;2023-06-14T12:49:09;24.00;27.50
8928;DHT22;4499;48.304;11.902;2023-06-14T12:51:38;23.90;26.10
8928;DHT22;4499;48.304;11.902;2023-06-14T12:54:07;23.80;27.40
8928;DHT22;4499;48.304;11.902;2023-06-14T12:56:35;23.60;26.10
8928;DHT22;4499;48.304;11.902;2023-06-14T12:59:03;23.30;26.70
8928;DHT22;4499;48.304;11.902;2023-06-14T13:01:34;23.40;27.60
8928;DHT22;4499;48.304;11.902;2023-06-14T13:04:03;24.00;27.00
8928;DHT22;4499;48.304;11.902;2023-06-14T13:06:32;24.80;27.30
8928;DHT22;4499;48.304;11.902;2023-06-14T13:09:00;25.10;25.60
8928;DHT22;4499;48.304;11.902;2023-06-14T13:11:30;24.90;24.80
8928;DHT22;4499;48.304;11.902;2023-06-14T13:13:59;24.60;24.90
8928;DHT22;4499;48.304;11.902;2023-06-14T13:16:41;24.40;28.50
8928;DHT22;4499;48.304;11.902;2023-06-14T13:19:09;24.30;27.10
8928;DHT22;4499;48.304;11.902;2023-06-14T13:21:37;23.70;25.40
8928;DHT22;4499;48.304;11.902;2023-06-14T13:24:06;23.60;28.10
8928;DHT22;4499;48.304;11.902;2023-06-14T13:26:34;24.00;28.20
8928;DHT22;4499;48.304;11.902;2023-06-14T13:29:03;24.50;28.00
8928;DHT22;4499;48.304;11.902;2023-06-14T13:31:31;24.70;27.80
8928;DHT22;4499;48.304;11.902;2023-06-14T13:34:01;24.70;25.70
8928;DHT22;4499;48.304;11.902;2023-06-14T13:36:29;25.10;26.00
8928;DHT22;4499;48.304;11.902;2023-06-14T13:38:58;25.20;24.80
8928;DHT22;4499;48.304;11.902;2023-06-14T13:41:28;25.50;24.70
8928;DHT22;4499;48.304;11.902;2023-06-14T13:43:58;25.70;23.60
8928;DHT22;4499;48.304;11.902;2023-06-14T13:46:27;25.80;22.90
8928;DHT22;4499;48.304;11.902;2023-06-14T13:48:55;25.70;22.50
8928;DHT22;4499;48.304;11.902;2023-06-14T13:51:25;26.00;24.10
8928;DHT22;4499;48.304;11.902;2023-06-14T13:53:54;25.80;24.00
8928;DHT22;4499;48.304;11.902;2023-06-14T13:56:22;25.90;23.70
8928;DHT22;4499;48.304;11.902;2023-06-14T13:58:51;25.60;24.10
8928;DHT22;4499;48.304;11.902;2023-06-14T14:01:19;25.70;24.10
8928;DHT22;4499;48.304;11.902;2023-06-14T14:03:48;26.10;23.90
8928;DHT22;4499;48.304;11.902;2023-06-14T14:06:17;26.20;23.30
8928;DHT22;4499;48.304;11.902;2023-06-14T14:08:46;26.40;23.30
8928;DHT22;4499;48.304;11.902;2023-06-14T14:11:15;26.00;24.30
8928;DHT22;4499;48.304;11.902;2023-06-14T14:13:44;26.10;25.20
8928;DHT22;4499;48.304;11.902;2023-06-14T14:16:13;26.20;25.90
8928;DHT22;4499;48.304;11.902;2023-06-14T14:18:41;26.40;25.70
8928;DHT22;4499;48.304;11.902;2023-06-14T14:21:09;26.40;23.70
8928;DHT22;4499;48.304;11.902;2023-06-14T14:23:38;26.10;24.10
8928;DHT22;4499;48.304;11.902;2023-06-14T14:26:09;26.40;24.10
8928;DHT22;4499;48.304;11.902;2023-06-14T14:28:37;26.30;23.20
8928;DHT22;4499;48.304;11.902;2023-06-14T14:31:05;26.30;23.70
8928;DHT22;4499;48.304;11.902;2023-06-14T14:33:34;26.50;24.80
8928;DHT22;4499;48.304;11.902;2023-06-14T14:36:02;25.80;24.80
8928;DHT22;4499;48.304;11.902;2023-06-14T14:38:31;25.70;26.10
8928;DHT22;4499;48.304;11.902;2023-06-14T14:40:59;25.40;26.60
8928;DHT22;4499;48.304;11.902;2023-06-14T14:43:29;24.70;27.60
8928;DHT22;4499;48.304;11.902;2023-06-14T14:45:58;25.00;28.70
8928;DHT22;4499;48.304;11.902;2023-06-14T14:48:27;25.00;27.50
8928;DHT22;4499;48.304;11.902;2023-06-14T14:50:55;25.10;28.20
8928;DHT22;4499;48.304;11.902;2023-06-14T14:53:23;25.30;27.90
8928;DHT22;4499;48.304;11.902;2023-06-14T14:55:51;25.50;27.90
8928;DHT22;4499;48.304;11.902;2023-06-14T14:58:19;25.50;27.20
8928;DHT22;4499;48.304;11.902;2023-06-14T15:00:49;25.60;26.60
8928;DHT22;4499;48.304;11.902;2023-06-14T15:03:17;25.30;27.20
8928;DHT22;4499;48.304;11.902;2023-06-14T15:05:45;25.50;27.20
8928;DHT22;4499;48.304;11.902;2023-06-14T15:08:13;24.90;26.10
8928;DHT22;4499;48.304;11.902;2023-06-14T15:10:42;25.00;27.20
8928;DHT22;4499;48.304;11.902;2023-06-14T15:13:10;24.90;27.10
8928;DHT22;4499;48.304;11.902;2023-06-14T15:15:39;24.80;27.10
8928;DHT22;4499;48.304;11.902;2023-06-14T15:18:08;24.80;27.40
8928;DHT22;4499;48.304;11.902;2023-06-14T15:20:37;25.10;28.40
8928;DHT22;4499;48.304;11.902;2023-06-14T15:23:05;24.90;27.90
8928;DHT22;4499;48.304;11.902;2023-06-14T15:25:33;24.90;26.80
8928;DHT22;4499;48.304;11.902;2023-06-14T15:28:02;24.90;27.50
8928;DHT22;4499;48.304;11.902;2023-06-14T15:30:33;24.90;26.90
8928;DHT22;4499;48.304;11.902;2023-06-14T15:33:02;24.70;25.70
8928;DHT22;4499;48.304;11.902;2023-06-14T15:35:32;24.70;26.50
8928;DHT22;4499;48.304;11.902;2023-06-14T15:38:00;24.60;27.20
8928;DHT22;4499;48.304;11.902;2023-06-14T15:40:28;24.60;27.60
8928;DHT22;4499;48.304;11.902;2023-06-14T15:42:56;24.90;28.50
8928;DHT22;4499;48.304;11.902;2023-06-14T15:45:25;24.70;27.20
8928;DHT22;4499;48.304;11.902;2023-06-14T15:47:54;24.70;27.10
8928;DHT22;4499;48.304;11.902;2023-06-14T15:50:22;24.60;27.10
8928;DHT22;4499;48.304;11.902;2023-06-14T15:52:52;24.40;26.80
8928;DHT22;4499;48.304;11.902;2023-06-14T15:55:20;24.20;27.40
8928;DHT22;4499;48.304;11.902;2023-06-14T15:57:48;24.20;26.50
8928;DHT22;4499;48.304;11.902;2023-06-14T16:00:17;24.10;26.80
8928;DHT22;4499;48.304;11.902;2023-06-14T16:02:46;24.00;26.60
8928;DHT22;4499;48.304;11.902;2023-06-14T16:05:16;24.00;26.70